Time;durP1;ratioP1;P1;durP2;ratioP2;P2;SDS_P1;SDS_P2;PMS_P1;PMS_P2;Temp;Humidity;BMP_temperature;BMP_pressure;BME280_temperature;BME280_humidity;BME280_pressure;Samples;Min_cycle;Max_cycle;Signal;HPM_P1;HPM_P2
2023/03/10 00:01:15;;;;;;;22.60;10.75;;;1.70;99.90;;;;;;6250912;22;20012;-89
2023/03/10 00:03:47;;;;;;;20.15;9.73;;;0.50;99.90;;;;;;6248939;23;20024;-87
2023/03/10 00:06:18;;;;;;;20.98;10.02;;;1.40;99.90;;;;;;6243929;23;20044;-89
2023/03/10 00:08:45;;;;;;;16.40;8.00;;;2.30;99.90;;;;;;6243826;23;20020;-88
2023/03/10 00:11:11;;;;;;;16.38;7.85;;;1.90;99.90;;;;;;6244396;23;20066;-87
2023/03/10 00:13:37;;;;;;;15.48;7.60;;;0.70;99.90;;;;;;6243864;23;20020;-88
2023/03/10 00:16:04;;;;;;;15.55;7.57;;;1.70;99.90;;;;;;6245714;23;20363;-88
2023/03/10 00:18:30;;;;;;;15.63;6.78;;;1.30;99.90;;;;;;6245831;22;20090;-87
2023/03/10 00:20:57;;;;;;;13.30;6.72;;;2.40;99.90;;;;;;6243638;23;20066;-87
2023/03/10 00:23:29;;;;;;;15.25;6.78;;;1.50;99.90;;;;;;6245958;22;20020;-88
2023/03/10 00:26:07;;;;;;;12.25;6.45;;;1.40;99.90;;;;;;6244891;23;20016;-89
2023/03/10 00:28:32;;;;;;;14.32;6.10;;;1.20;99.90;;;;;;6245442;22;20027;-88
2023/03/10 00:31:04;;;;;;;12.65;6.57;;;0.90;99.90;;;;;;6243935;23;20020;-88
2023/03/10 00:33:33;;;;;;;12.65;6.45;;;1.90;99.90;;;;;;6244246;23;20054;-89
2023/03/10 00:36:22;;;;;;;14.60;7.22;;;1.30;99.90;;;;;;6244037;23;20074;-86
2023/03/10 00:38:48;;;;;;;14.02;6.63;;;1.30;99.90;;;;;;6244159;23;20016;-88
2023/03/10 00:41:21;;;;;;;12.70;5.68;;;1.80;99.90;;;;;;6244335;23;20024;-89
2023/03/10 00:43:48;;;;;;;12.70;5.97;;;2.40;99.90;;;;;;6244546;22;20024;-88
2023/03/10 00:46:14;;;;;;;11.32;6.13;;;1.70;99.90;;;;;;6245370;22;20012;-88
2023/03/10 00:48:43;;;;;;;11.05;5.45;;;1.30;99.90;;;;;;6244196;23;20342;-88
2023/03/10 00:51:09;;;;;;;13.43;6.72;;;2.30;99.90;;;;;;6243749;23;20154;-86
2023/03/10 00:53:39;;;;;;;13.75;6.22;;;1.00;99.90;;;;;;6243485;23;20012;-88
2023/03/10 00:56:20;;;;;;;14.60;6.40;;;2.60;99.90;;;;;;6219580;23;20124;-89
2023/03/10 00:58:48;;;;;;;13.27;6.95;;;1.30;99.90;;;;;;6242904;23;20051;-87
2023/03/10 01:01:23;;;;;;;13.60;6.32;;;1.20;99.90;;;;;;6243879;23;20028;-87
2023/03/10 01:03:53;;;;;;;14.52;6.53;;;1.10;99.90;;;;;;6245285;23;20016;-89
2023/03/10 01:06:19;;;;;;;14.32;6.82;;;2.00;99.90;;;;;;6247629;22;20058;-88
2023/03/10 01:08:46;;;;;;;11.63;5.68;;;2.00;99.90;;;;;;6245718;23;20027;-89
2023/03/10 01:11:30;;;;;;;9.63;4.90;;;1.60;99.90;;;;;;6245713;23;20063;-88
2023/03/10 01:13:58;;;;;;;13.20;6.50;;;1.30;99.90;;;;;;6220111;23;20028;-90
2023/03/10 01:16:27;;;;;;;13.40;6.32;;;1.80;99.90;;;;;;6246091;23;20020;-88
2023/03/10 01:18:54;;;;;;;10.55;5.65;;;1.20;99.90;;;;;;6245637;23;20022;-88
2023/03/10 01:21:34;;;;;;;12.95;6.43;;;1.80;99.90;;;;;;6220271;23;20493;-89
2023/03/10 01:24:03;;;;;;;11.93;5.97;;;0.70;99.90;;;;;;6219416;23;20051;-87
2023/03/10 01:26:29;;;;;;;12.63;6.03;;;1.70;99.90;;;;;;6245358;23;20016;-88
2023/03/10 01:28:55;;;;;;;13.13;6.25;;;1.40;99.90;;;;;;6245170;23;20035;-87
2023/03/10 01:31:23;;;;;;;12.85;5.97;;;1.30;99.90;;;;;;6247358;22;20016;-87
2023/03/10 01:33:49;;;;;;;13.65;6.55;;;0.40;99.90;;;;;;6245276;23;20043;-88
2023/03/10 01:36:21;;;;;;;16.95;7.05;;;0.60;99.90;;;;;;6245110;23;20020;-87
2023/03/10 01:38:50;;;;;;;13.73;6.40;;;1.20;99.90;;;;;;6245724;23;20060;-88
2023/03/10 01:41:20;;;;;;;12.75;6.70;;;0.90;99.90;;;;;;6247428;22;20016;-88
2023/03/10 01:43:49;;;;;;;11.73;6.00;;;1.20;99.90;;;;;;6245421;23;20020;-88
2023/03/10 01:46:31;;;;;;;14.55;6.90;;;2.70;99.90;;;;;;6245520;23;20013;-88
2023/03/10 01:49:05;;;;;;;12.82;6.13;;;1.30;99.90;;;;;;6245232;23;20448;-90
2023/03/10 01:51:34;;;;;;;13.45;6.78;;;1.20;99.90;;;;;;6245181;23;20016;-88
2023/03/10 01:54:07;;;;;;;13.38;6.40;;;0.70;99.90;;;;;;6219909;23;20031;-89
2023/03/10 01:56:34;;;;;;;14.90;6.78;;;1.30;99.90;;;;;;6244672;23;20016;-89
2023/03/10 01:59:00;;;;;;;12.57;5.97;;;1.30;99.90;;;;;;6245038;23;20079;-89
2023/03/10 02:01:35;;;;;;;;;;;;;;;;;;;;;
2023/03/10 02:04:17;;;;;;;13.90;6.85;;;2.10;99.90;;;;;;6239319;23;20024;-89
2023/03/10 02:06:46;;;;;;;12.52;6.50;;;1.20;99.90;;;;;;6246609;22;20096;-89
2023/03/10 02:09:13;;;;;;;13.65;6.32;;;1.20;99.90;;;;;;6244999;23;20016;-88
2023/03/10 02:11:46;;;;;;;11.32;6.13;;;1.40;99.90;;;;;;6246677;22;20011;-89
2023/03/10 02:14:11;;;;;;;13.32;6.75;;;1.30;99.90;;;;;;6244336;23;20020;-89
2023/03/10 02:16:45;;;;;;;11.73;5.85;;;2.50;99.90;;;;;;6246610;23;20013;-88
2023/03/10 02:19:39;;;;;;;11.32;5.95;;;2.40;99.90;;;;;;6247049;22;20027;-89
2023/03/10 02:22:13;;;;;;;13.30;6.60;;;0.50;99.90;;;;;;6244660;23;20027;-89
2023/03/10 02:24:45;;;;;;;11.93;5.95;;;1.20;99.90;;;;;;6245014;23;20063;-89
2023/03/10 02:28:01;;;;;;;;;;;;;;;;;;;;;
2023/03/10 02:30:33;;;;;;;13.68;6.43;;;1.30;99.90;;;;;;6153648;23;20383;-89
2023/03/10 02:33:03;;;;;;;11.85;6.22;;;1.40;99.90;;;;;;6134248;23;20052;-89
2023/03/10 02:35:29;;;;;;;13.88;6.35;;;2.30;99.90;;;;;;6158588;23;20021;-90
2023/03/10 02:37:59;;;;;;;13.35;7.13;;;1.40;99.90;;;;;;6159024;23;20044;-90
2023/03/10 02:40:36;;;;;;;12.38;5.97;;;1.40;99.90;;;;;;6183569;23;20447;-89
2023/03/10 02:43:12;;;;;;;15.13;7.82;;;1.70;99.90;;;;;;6158387;23;20028;-88
2023/03/10 02:45:39;;;;;;;;;;;1.40;99.90;;;;;;6159056;23;20013;-89
2023/03/10 02:48:07;;;;;;;15.10;7.68;;;1.40;99.90;;;;;;6158739;23;19951;-90
2023/03/10 02:50:43;;;;;;;15.40;7.60;;;1.30;99.90;;;;;;6183106;23;20021;-89
2023/03/10 02:53:14;;;;;;;15.57;7.38;;;1.40;99.90;;;;;;6158321;23;20021;-90
2023/03/10 02:55:40;;;;;;;15.27;7.20;;;2.10;99.90;;;;;;6157985;23;20494;-89
2023/03/10 02:58:06;;;;;;;16.15;8.20;;;2.80;99.90;;;;;;6133596;23;20021;-87
2023/03/10 03:00:37;;;;;;;18.35;9.15;;;1.90;99.90;;;;;;6219532;23;20020;-90
2023/03/10 03:03:03;;;;;;;16.52;8.07;;;2.20;99.90;;;;;;6244509;23;20020;-89
2023/03/10 03:05:29;;;;;;;17.63;8.40;;;1.30;99.90;;;;;;6244295;23;20012;-88
2023/03/10 03:07:54;;;;;;;15.90;8.52;;;0.70;99.90;;;;;;6244443;23;20093;-89
2023/03/10 03:10:20;;;;;;;16.92;8.75;;;1.60;99.90;;;;;;6244114;23;20017;-90
2023/03/10 03:12:49;;;;;;;18.35;9.65;;;2.40;99.90;;;;;;6244026;23;20082;-89
2023/03/10 03:15:17;;;;;;;18.30;9.18;;;1.20;99.90;;;;;;6244854;23;20016;-90
2023/03/10 03:17:43;;;;;;;18.10;8.80;;;1.90;99.90;;;;;;6219187;23;20023;-90
2023/03/10 03:20:13;;;;;;;15.63;8.15;;;2.70;99.90;;;;;;6246271;22;20012;-88
2023/03/10 03:22:45;;;;;;;14.43;7.10;;;1.20;99.90;;;;;;6244094;23;20016;-89
2023/03/10 03:25:13;;;;;;;15.20;7.35;;;1.20;99.90;;;;;;6244753;23;20489;-90
2023/03/10 03:27:42;;;;;;;18.20;8.73;;;1.20;99.90;;;;;;6246011;22;20011;-90
2023/03/10 03:30:14;;;;;;;15.15;7.97;;;1.20;99.90;;;;;;6219589;23;20024;-89
2023/03/10 03:32:41;;;;;;;15.23;7.63;;;1.20;99.90;;;;;;6246131;22;20008;-90
2023/03/10 03:35:14;;;;;;;16.17;7.72;;;2.10;99.90;;;;;;6244067;23;20060;-89
2023/03/10 03:37:41;;;;;;;17.50;8.32;;;2.10;99.90;;;;;;6244372;23;20039;-90
2023/03/10 03:40:11;;;;;;;16.50;8.32;;;2.30;99.90;;;;;;6243946;23;20031;-90
2023/03/10 03:42:46;;;;;;;14.85;6.80;;;1.20;99.90;;;;;;6244791;23;20464;-90
2023/03/10 03:45:14;;;;;;;15.27;7.35;;;1.20;99.90;;;;;;6244054;23;20047;-89
2023/03/10 03:47:42;;;;;;;16.95;8.35;;;1.20;99.90;;;;;;6244312;23;20087;-90
2023/03/10 03:50:10;;;;;;;13.27;6.82;;;1.10;99.90;;;;;;6245728;22;20016;-90
2023/03/10 03:52:42;;;;;;;17.13;8.70;;;1.20;99.90;;;;;;6244685;23;20406;-90
2023/03/10 03:55:09;;;;;;;17.58;8.18;;;1.60;99.90;;;;;;6244434;23;20549;-90
2023/03/10 03:57:35;;;;;;;18.95;8.38;;;1.20;99.90;;;;;;6244578;23;20012;-91
2023/03/10 04:00:07;;;;;;;16.67;7.97;;;1.00;99.90;;;;;;6243918;23;20455;-90
2023/03/10 04:02:34;;;;;;;18.42;8.65;;;1.80;99.90;;;;;;6244592;23;20347;-90
2023/03/10 04:05:01;;;;;;;18.77;8.25;;;2.70;99.90;;;;;;6245792;22;20106;-90
2023/03/10 04:07:27;;;;;;;16.13;8.20;;;1.30;99.90;;;;;;6245491;22;20016;-89
2023/03/10 04:09:52;;;;;;;15.80;8.18;;;1.30;99.90;;;;;;6245691;23;20027;-90
2023/03/10 04:12:18;;;;;;;18.73;8.43;;;1.20;99.90;;;;;;6243631;23;20048;-89
2023/03/10 04:14:46;;;;;;;18.50;9.25;;;0.90;99.90;;;;;;6243783;23;20380;-90
2023/03/10 04:17:12;;;;;;;17.92;8.73;;;1.10;99.90;;;;;;6245512;23;20447;-90
2023/03/10 04:19:41;;;;;;;17.60;9.00;;;1.60;99.90;;;;;;6244213;23;20419;-89
2023/03/10 04:22:06;;;;;;;24.58;11.02;;;1.40;99.90;;;;;;6243836;23;20091;-89
2023/03/10 04:24:32;;;;;;;24.40;10.32;;;1.80;99.90;;;;;;6245925;22;20016;-89
2023/03/10 04:27:00;;;;;;;21.80;10.75;;;2.30;99.90;;;;;;6245232;23;20423;-90
2023/03/10 04:29:26;;;;;;;21.10;9.23;;;2.20;99.90;;;;;;6244860;22;20020;-90
2023/03/10 04:31:52;;;;;;;21.50;9.80;;;0.70;99.90;;;;;;6244086;23;20078;-90
2023/03/10 04:34:18;;;;;;;27.60;11.88;;;1.10;99.90;;;;;;6243454;23;20026;-89
2023/03/10 04:36:43;;;;;;;28.83;12.82;;;1.10;99.90;;;;;;6245410;22;20028;-89
2023/03/10 04:39:09;;;;;;;31.95;14.02;;;1.20;99.90;;;;;;6245048;23;20044;-89
2023/03/10 04:41:35;;;;;;;33.92;15.20;;;1.70;99.90;;;;;;6245901;23;20016;-89
2023/03/10 04:44:02;;;;;;;38.10;16.80;;;2.00;99.90;;;;;;6247462;22;20016;-89
2023/03/10 04:46:30;;;;;;;36.53;14.93;;;1.10;99.90;;;;;;6245826;23;20095;-88
2023/03/10 04:48:56;;;;;;;34.30;14.75;;;0.90;99.90;;;;;;6245904;23;20016;-88
2023/03/10 04:51:22;;;;;;;39.38;15.63;;;1.50;99.90;;;;;;6245827;23;20012;-89
2023/03/10 04:53:50;;;;;;;40.85;16.65;;;1.90;99.90;;;;;;6246716;23;20354;-89
2023/03/10 04:56:16;;;;;;;34.38;15.02;;;1.30;99.90;;;;;;6246198;23;20012;-90
2023/03/10 04:58:41;;;;;;;31.67;14.70;;;1.10;99.90;;;;;;6245594;23;20019;-90
2023/03/10 05:01:09;;;;;;;39.58;16.75;;;1.30;99.90;;;;;;6248036;23;20294;-88
2023/03/10 05:03:35;;;;;;;37.00;15.68;;;0.40;99.90;;;;;;6249457;23;20020;-89
2023/03/10 05:06:01;;;;;;;35.20;15.48;;;1.10;99.90;;;;;;6222662;23;20022;-90
2023/03/10 05:08:27;;;;;;;33.83;15.55;;;0.60;99.90;;;;;;6249066;23;20048;-90
2023/03/10 05:10:52;;;;;;;31.70;14.35;;;1.20;99.90;;;;;;6250390;23;20016;-90
2023/03/10 05:13:18;;;;;;;34.83;15.30;;;2.10;99.90;;;;;;6250167;23;20051;-89
2023/03/10 05:15:44;;;;;;;31.85;14.60;;;1.90;99.90;;;;;;6249023;23;20031;-91
2023/03/10 05:18:10;;;;;;;29.33;12.65;;;1.40;99.90;;;;;;6247293;23;20027;-90
2023/03/10 05:20:37;;;;;;;32.40;14.32;;;0.40;99.90;;;;;;6245979;23;20031;-88
2023/03/10 05:23:03;;;;;;;27.95;12.68;;;1.00;99.90;;;;;;6245236;23;20091;-89
2023/03/10 05:25:28;;;;;;;27.13;12.77;;;2.10;99.90;;;;;;6247018;23;20058;-89
2023/03/10 05:27:54;;;;;;;27.98;12.30;;;2.10;99.90;;;;;;6245178;23;20027;-88
2023/03/10 05:30:23;;;;;;;25.70;11.65;;;1.50;99.90;;;;;;6245347;23;20081;-88
2023/03/10 05:32:49;;;;;;;26.38;11.85;;;1.20;99.90;;;;;;6245482;23;20059;-88
2023/03/10 05:35:18;;;;;;;21.40;10.50;;;1.90;99.90;;;;;;6246767;22;20016;-88
2023/03/10 05:37:43;;;;;;;24.98;11.38;;;1.00;99.90;;;;;;6245500;23;20027;-90
2023/03/10 05:40:13;;;;;;;21.38;9.57;;;0.90;99.90;;;;;;6246364;23;20008;-89
2023/03/10 05:42:39;;;;;;;23.80;11.30;;;0.60;99.90;;;;;;6245605;23;20020;-89
2023/03/10 05:45:06;;;;;;;22.35;9.68;;;1.10;99.90;;;;;;6245619;23;20016;-90
2023/03/10 05:47:32;;;;;;;19.30;8.85;;;1.00;99.90;;;;;;6245183;23;20023;-88
2023/03/10 05:49:59;;;;;;;21.05;10.02;;;2.20;99.90;;;;;;6246550;23;20013;-89
2023/03/10 05:52:25;;;;;;;18.58;9.00;;;1.80;99.90;;;;;;6219823;23;20055;-89
2023/03/10 05:54:50;;;;;;;17.05;8.43;;;0.80;99.90;;;;;;6245176;23;20020;-91
2023/03/10 05:57:16;;;;;;;19.67;9.52;;;1.50;99.90;;;;;;6244884;23;20019;-89
2023/03/10 05:59:42;;;;;;;22.10;9.52;;;0.60;99.90;;;;;;6247343;23;20443;-89
2023/03/10 06:02:08;;;;;;;17.38;8.35;;;0.80;99.90;;;;;;6245044;23;20074;-88
2023/03/10 06:04:33;;;;;;;17.30;7.90;;;1.60;99.90;;;;;;6245077;23;20083;-89
2023/03/10 06:07:00;;;;;;;17.30;8.63;;;0.80;99.90;;;;;;6244864;23;20051;-89
2023/03/10 06:09:27;;;;;;;21.83;8.77;;;1.60;99.90;;;;;;6246315;23;20366;-86
2023/03/10 06:11:52;;;;;;;17.02;8.75;;;0.70;99.90;;;;;;6245398;23;20403;-87
2023/03/10 06:14:18;;;;;;;19.10;8.57;;;2.00;99.90;;;;;;6245318;23;20055;-88
2023/03/10 06:16:50;;;;;;;16.80;7.80;;;0.70;99.90;;;;;;6244608;23;20020;-87
2023/03/10 06:19:16;;;;;;;18.85;8.90;;;0.70;99.90;;;;;;6245135;23;20019;-88
2023/03/10 06:21:42;;;;;;;18.45;8.32;;;1.30;99.90;;;;;;6245300;23;20431;-87
2023/03/10 06:24:08;;;;;;;19.25;8.80;;;2.00;99.90;;;;;;6244836;23;20062;-86
2023/03/10 06:26:34;;;;;;;21.73;10.35;;;0.50;99.90;;;;;;6244445;23;20354;-89
2023/03/10 06:29:00;;;;;;;18.73;8.80;;;0.60;99.90;;;;;;6244548;23;20027;-87
2023/03/10 06:31:26;;;;;;;22.05;10.98;;;-0.10;99.90;;;;;;6244478;23;20023;-86
2023/03/10 06:33:52;;;;;;;24.10;11.18;;;0.60;99.90;;;;;;6245051;23;20346;-86
2023/03/10 06:36:19;;;;;;;23.60;10.73;;;1.00;99.90;;;;;;6244419;23;20020;-87
2023/03/10 06:38:46;;;;;;;23.88;11.02;;;1.30;99.90;;;;;;6244839;23;20051;-86
2023/03/10 06:41:11;;;;;;;23.58;9.77;;;1.30;99.90;;;;;;6244494;23;20024;-86
2023/03/10 06:43:37;;;;;;;22.95;10.60;;;1.00;99.90;;;;;;6244610;23;20512;-86
2023/03/10 06:46:06;;;;;;;29.25;12.18;;;0.50;99.90;;;;;;6245054;23;20016;-86
2023/03/10 06:48:32;;;;;;;21.38;10.35;;;0.50;99.90;;;;;;6245929;22;20055;-87
2023/03/10 06:50:59;;;;;;;23.73;10.52;;;1.00;99.90;;;;;;6246504;22;20012;-85
2023/03/10 06:53:26;;;;;;;22.85;10.48;;;1.70;99.90;;;;;;6245800;22;20008;-84
2023/03/10 06:56:00;;;;;;;23.02;10.10;;;0.50;99.90;;;;;;6246227;22;20017;-85
2023/03/10 06:58:27;;;;;;;25.70;11.52;;;0.50;99.90;;;;;;6246007;23;20008;-87
2023/03/10 07:00:53;;;;;;;23.02;10.23;;;1.60;99.90;;;;;;6245387;22;20027;-83
2023/03/10 07:03:19;;;;;;;23.63;10.13;;;0.40;99.90;;;;;;6244195;23;20020;-82
2023/03/10 07:05:44;;;;;;;19.30;9.57;;;1.10;99.90;;;;;;6245717;23;20482;-85
2023/03/10 07:08:10;;;;;;;19.60;9.38;;;1.30;99.90;;;;;;6245742;23;20020;-84
2023/03/10 07:10:36;;;;;;;19.70;9.63;;;1.60;99.90;;;;;;6245586;23;20022;-84
2023/03/10 07:13:01;;;;;;;20.95;9.45;;;-0.10;99.90;;;;;;6245784;23;20012;-84
2023/03/10 07:15:28;;;;;;;22.42;9.75;;;0.40;99.90;;;;;;6246070;22;20476;-84
2023/03/10 07:17:55;;;;;;;21.23;10.25;;;0.40;99.90;;;;;;6246414;22;20134;-85
2023/03/10 07:20:22;;;;;;;20.02;10.18;;;1.10;99.90;;;;;;6244313;23;20020;-84
2023/03/10 07:22:48;;;;;;;18.70;8.85;;;0.40;99.90;;;;;;6245994;22;20095;-83
2023/03/10 07:25:14;;;;;;;18.70;9.93;;;0.40;99.90;;;;;;6245585;23;20051;-82
2023/03/10 07:27:40;;;;;;;20.50;9.48;;;0.50;99.90;;;;;;6245626;23;20087;-82
2023/03/10 07:30:08;;;;;;;21.05;9.50;;;0.40;99.90;;;;;;6244267;23;20051;-83
2023/03/10 07:32:33;;;;;;;19.95;10.38;;;0.50;99.90;;;;;;6245841;23;20058;-81
2023/03/10 07:34:59;;;;;;;24.25;10.30;;;0.50;99.90;;;;;;6245997;23;20443;-82
2023/03/10 07:37:25;;;;;;;22.55;9.80;;;0.50;99.90;;;;;;6245658;22;20459;-83
2023/03/10 07:39:53;;;;;;;18.92;8.88;;;1.50;99.90;;;;;;6245303;23;20348;-85
2023/03/10 07:42:19;;;;;;;20.48;8.93;;;1.20;99.90;;;;;;6244250;23;20022;-84
2023/03/10 07:44:44;;;;;;;19.10;9.57;;;0.50;99.90;;;;;;6245431;23;20087;-83
2023/03/10 07:47:10;;;;;;;17.15;7.50;;;0.50;99.90;;;;;;6245876;23;20012;-84
2023/03/10 07:49:36;;;;;;;18.17;7.53;;;0.90;99.90;;;;;;6246492;23;20020;-84
2023/03/10 07:52:01;;;;;;;17.70;7.72;;;0.90;99.90;;;;;;6244345;23;20449;-83
2023/03/10 07:54:27;;;;;;;19.83;9.43;;;0.60;99.90;;;;;;6246232;23;20023;-83
2023/03/10 07:56:53;;;;;;;21.13;9.38;;;0.50;99.90;;;;;;6245800;23;20439;-83
2023/03/10 07:59:18;;;;;;;20.42;9.00;;;1.00;99.90;;;;;;6246006;23;20036;-83
2023/03/10 08:01:44;;;;;;;19.08;9.15;;;1.20;99.90;;;;;;6244025;23;20020;-83
2023/03/10 08:04:11;;;;;;;22.38;9.05;;;0.60;99.90;;;;;;6245658;23;20012;-83
2023/03/10 08:06:37;;;;;;;21.48;9.65;;;1.60;99.90;;;;;;6243962;23;20023;-83
2023/03/10 08:09:03;;;;;;;23.55;10.95;;;0.70;99.90;;;;;;6245563;22;20014;-83
2023/03/10 08:11:28;;;;;;;23.30;10.60;;;0.70;99.90;;;;;;6245962;23;20040;-83
2023/03/10 08:13:54;;;;;;;19.10;9.88;;;0.70;99.90;;;;;;6243945;23;20017;-83
2023/03/10 08:16:21;;;;;;;21.08;9.18;;;0.70;99.90;;;;;;6246165;22;20018;-82
2023/03/10 08:18:49;;;;;;;22.23;10.07;;;0.70;99.90;;;;;;6245802;22;20016;-82
2023/03/10 08:21:15;;;;;;;24.08;10.48;;;0.80;99.90;;;;;;6245920;22;20016;-83
2023/03/10 08:23:41;;;;;;;21.92;10.27;;;2.00;99.90;;;;;;6245934;23;20389;-85
2023/03/10 08:26:09;;;;;;;21.85;9.95;;;1.80;99.90;;;;;;6244140;23;20381;-82
2023/03/10 08:28:37;;;;;;;24.15;10.57;;;0.70;99.90;;;;;;6243663;23;20050;-83
2023/03/10 08:31:15;;;;;;;22.23;10.18;;;1.00;99.90;;;;;;6245624;22;20095;-82
2023/03/10 08:33:43;;;;;;;19.67;9.27;;;0.80;99.90;;;;;;6244882;22;20023;-83
2023/03/10 08:36:13;;;;;;;20.42;9.48;;;0.80;99.90;;;;;;6243873;23;20013;-83
2023/03/10 08:38:40;;;;;;;19.85;8.85;;;0.80;99.90;;;;;;6245504;22;20021;-82
2023/03/10 08:41:29;;;;;;;20.02;9.80;;;0.90;99.90;;;;;;6245596;22;20024;-82
2023/03/10 08:43:56;;;;;;;21.63;9.23;;;0.90;99.90;;;;;;6245849;22;20013;-83
2023/03/10 08:46:24;;;;;;;22.40;10.45;;;0.90;99.90;;;;;;6245357;22;20012;-83
2023/03/10 08:48:50;;;;;;;21.05;8.93;;;1.20;99.90;;;;;;6245216;22;20024;-83
2023/03/10 08:51:16;;;;;;;18.25;8.32;;;0.80;99.90;;;;;;6245472;22;20058;-83
2023/03/10 08:53:45;;;;;;;23.30;11.10;;;0.90;99.90;;;;;;6245517;23;20016;-83
2023/03/10 08:56:11;;;;;;;22.70;10.40;;;1.00;99.90;;;;;;6245485;22;20024;-83
2023/03/10 08:58:37;;;;;;;24.48;10.70;;;1.70;99.90;;;;;;6245562;23;20012;-83
2023/03/10 09:01:03;;;;;;;22.40;9.80;;;2.40;99.90;;;;;;6245762;22;20059;-83
2023/03/10 09:03:29;;;;;;;20.90;9.63;;;1.10;99.90;;;;;;6243608;23;20020;-84
2023/03/10 09:05:54;;;;;;;23.02;10.27;;;1.10;99.90;;;;;;6244989;23;20028;-83
2023/03/10 09:08:21;;;;;;;21.35;10.35;;;1.20;99.90;;;;;;6245089;23;20455;-84
2023/03/10 09:10:47;;;;;;;18.42;8.95;;;1.50;99.90;;;;;;6245516;22;20023;-87
2023/03/10 09:13:13;;;;;;;19.88;9.35;;;1.30;99.90;;;;;;6243810;23;20346;-83
2023/03/10 09:15:40;;;;;;;20.75;9.05;;;2.50;99.90;;;;;;6245527;23;20019;-83
2023/03/10 09:18:14;;;;;;;21.38;9.75;;;1.20;99.90;;;;;;6243785;23;20013;-81
2023/03/10 09:20:40;;;;;;;20.15;9.75;;;1.90;99.90;;;;;;6245543;22;20066;-81
2023/03/10 09:23:07;;;;;;;20.83;9.80;;;1.20;99.90;;;;;;6245529;22;20070;-81
2023/03/10 09:25:33;;;;;;;22.80;9.60;;;1.20;99.90;;;;;;6247057;22;20073;-80
2023/03/10 09:27:59;;;;;;;17.80;8.90;;;1.20;99.90;;;;;;6246751;22;20066;-81
2023/03/10 09:30:25;;;;;;;22.02;10.63;;;1.20;99.90;;;;;;6245308;23;20023;-81
2023/03/10 09:32:51;;;;;;;19.88;9.38;;;1.10;99.90;;;;;;6247194;22;20025;-82
2023/03/10 09:35:17;;;;;;;20.50;9.43;;;1.10;99.90;;;;;;6247418;22;20016;-81
2023/03/10 09:37:43;;;;;;;22.42;9.90;;;1.20;99.90;;;;;;6247285;22;20042;-82
2023/03/10 09:40:16;;;;;;;19.73;9.00;;;1.10;99.90;;;;;;6247055;23;20012;-82
2023/03/10 09:43:03;;;;;;;20.45;8.55;;;1.20;99.90;;;;;;6247316;22;20335;-82
2023/03/10 09:45:34;;;;;;;20.77;9.85;;;1.20;99.90;;;;;;6244625;23;20023;-82
2023/03/10 09:48:15;;;;;;;21.80;9.40;;;1.20;99.90;;;;;;6245246;23;20012;-82
2023/03/10 09:50:46;;;;;;;25.15;10.27;;;1.80;99.90;;;;;;6245382;23;20020;-82
2023/03/10 09:53:33;;;;;;;23.10;9.82;;;1.20;99.90;;;;;;6245262;23;20015;-82
2023/03/10 09:55:59;;;;;;;22.58;10.88;;;1.30;99.90;;;;;;6245594;23;20077;-83
2023/03/10 09:58:36;;;;;;;19.65;9.23;;;1.30;99.90;;;;;;6246782;23;20051;-82
2023/03/10 10:01:05;;;;;;;24.35;9.43;;;1.20;99.90;;;;;;6245078;23;20039;-82
2023/03/10 10:03:44;;;;;;;23.67;10.05;;;1.20;99.90;;;;;;6247015;22;20012;-82
2023/03/10 10:06:19;;;;;;;21.65;10.02;;;1.30;99.90;;;;;;6246464;22;20442;-82
2023/03/10 10:08:55;;;;;;;28.48;10.02;;;1.80;99.90;;;;;;6220517;23;20042;-82
2023/03/10 10:11:21;;;;;;;19.65;9.60;;;1.80;99.90;;;;;;6245157;23;20055;-83
2023/03/10 10:13:48;;;;;;;24.17;10.43;;;1.00;99.90;;;;;;6244999;23;20398;-82
2023/03/10 10:16:34;;;;;;;22.20;10.85;;;1.20;99.90;;;;;;6246995;22;20016;-83
2023/03/10 10:19:07;;;;;;;26.42;11.57;;;1.30;99.90;;;;;;6246830;22;20023;-82
2023/03/10 10:22:05;;;;;;;22.00;10.60;;;1.30;99.90;;;;;;6246877;22;20023;-82
2023/03/10 10:24:31;;;;;;;23.02;11.02;;;1.40;99.90;;;;;;6246911;23;20351;-83
2023/03/10 10:26:57;;;;;;;19.85;9.13;;;1.40;99.90;;;;;;6244844;23;20019;-83
2023/03/10 10:29:35;;;;;;;19.48;9.40;;;1.50;99.90;;;;;;6246485;22;20835;-82
2023/03/10 10:32:14;;;;;;;21.80;10.13;;;1.40;99.90;;;;;;6246535;22;20505;-82
2023/03/10 10:34:45;;;;;;;18.88;9.13;;;1.50;99.90;;;;;;6245310;23;20019;-82
2023/03/10 10:37:30;;;;;;;24.77;10.50;;;2.30;99.90;;;;;;6244835;23;20450;-82
2023/03/10 10:39:58;;;;;;;21.35;9.93;;;1.50;99.90;;;;;;6246490;22;20020;-83
2023/03/10 10:42:29;;;;;;;22.85;10.65;;;1.50;99.90;;;;;;6246240;22;20465;-82
2023/03/10 10:44:58;;;;;;;21.90;9.48;;;1.50;99.90;;;;;;6246771;22;20018;-82
2023/03/10 10:47:25;;;;;;;23.33;10.52;;;1.60;99.90;;;;;;6246611;22;20394;-83
2023/03/10 10:49:51;;;;;;;17.42;8.05;;;1.50;99.90;;;;;;6245019;23;20137;-83
2023/03/10 10:52:25;;;;;;;18.00;8.90;;;1.50;99.90;;;;;;6246538;22;20062;-82
2023/03/10 10:54:56;;;;;;;21.23;10.15;;;1.50;99.90;;;;;;6246970;22;20073;-82
2023/03/10 10:57:34;;;;;;;21.17;9.15;;;1.90;99.90;;;;;;6246482;22;20027;-82
2023/03/10 11:00:35;;;;;;;17.95;8.98;;;1.40;99.90;;;;;;6244930;23;20020;-83
2023/03/10 11:03:18;;;;;;;23.67;10.48;;;1.30;99.90;;;;;;6183303;23;20021;-83
2023/03/10 11:05:47;;;;;;;19.73;8.50;;;1.10;99.90;;;;;;6158558;23;20391;-82
2023/03/10 11:08:30;;;;;;;20.65;9.13;;;1.40;99.90;;;;;;6183520;23;20100;-83
2023/03/10 11:11:24;;;;;;;19.52;8.23;;;1.40;99.90;;;;;;6183716;23;20052;-82
2023/03/10 11:14:04;;;;;;;21.23;9.63;;;1.40;99.90;;;;;;6183576;23;20017;-84
2023/03/10 11:16:54;;;;;;;21.30;10.27;;;1.40;99.90;;;;;;6183233;23;20388;-83
2023/03/10 11:19:29;;;;;;;22.60;10.25;;;1.30;99.90;;;;;;6158352;23;20013;-82
2023/03/10 11:22:02;;;;;;;23.97;9.93;;;1.50;99.90;;;;;;6183095;23;20017;-84
2023/03/10 11:24:35;;;;;;;23.73;10.70;;;2.40;99.90;;;;;;6158056;23;20338;-82
2023/03/10 11:27:14;;;;;;;24.98;10.40;;;2.20;99.90;;;;;;6157331;23;20091;-82
2023/03/10 11:30:01;;;;;;;23.75;10.70;;;0.60;99.90;;;;;;6182600;23;20021;-81
2023/03/10 11:32:43;;;;;;;21.90;10.95;;;1.50;99.90;;;;;;6182381;23;20021;-85
2023/03/10 11:35:26;;;;;;;25.45;12.88;;;1.50;99.90;;;;;;6182811;23;20021;-83
2023/03/10 11:38:10;;;;;;;22.23;10.63;;;3.00;99.90;;;;;;6182998;23;20013;-82
2023/03/10 11:40:47;;;;;;;26.30;11.82;;;2.80;99.90;;;;;;6217543;23;20442;-82
2023/03/10 11:43:26;;;;;;;23.95;11.43;;;1.50;99.90;;;;;;6246125;22;20016;-83
2023/03/10 11:45:54;;;;;;;22.20;10.50;;;1.60;99.90;;;;;;6246222;22;20008;-83
2023/03/10 11:48:50;;;;;;;23.52;10.88;;;1.40;99.90;;;;;;6245403;22;20019;-83
2023/03/10 11:51:35;;;;;;;26.50;11.98;;;1.40;99.90;;;;;;6244323;23;20351;-82
2023/03/10 11:54:19;;;;;;;20.42;10.63;;;1.40;99.90;;;;;;6246252;23;20027;-83
2023/03/10 11:56:47;;;;;;;17.85;9.30;;;1.40;99.90;;;;;;6245765;22;20020;-83
2023/03/10 11:59:16;;;;;;;23.55;11.30;;;1.40;99.90;;;;;;6245959;22;20019;-82
2023/03/10 12:01:59;;;;;;;21.30;10.95;;;2.40;99.90;;;;;;6243892;23;20091;-82
2023/03/10 12:04:49;;;;;;;19.40;10.13;;;1.30;99.90;;;;;;6244077;23;20020;-82
2023/03/10 12:07:22;;;;;;;20.85;10.05;;;1.60;99.90;;;;;;6245950;22;20012;-82
2023/03/10 12:09:53;;;;;;;19.98;9.65;;;1.50;99.90;;;;;;6245328;23;20027;-81
2023/03/10 12:12:27;;;;;;;22.88;11.02;;;1.40;99.90;;;;;;6244229;23;20009;-81
2023/03/10 12:14:54;;;;;;;23.38;11.13;;;1.40;99.90;;;;;;6245438;22;20024;-82
2023/03/10 12:17:20;;;;;;;19.55;10.52;;;1.40;99.90;;;;;;6245762;22;20016;-82
2023/03/10 12:20:13;;;;;;;18.00;9.52;;;2.50;99.90;;;;;;6245638;22;20016;-82
2023/03/10 12:22:49;;;;;;;24.27;11.15;;;1.30;99.90;;;;;;6245312;23;20016;-82
2023/03/10 12:25:31;;;;;;;24.73;12.07;;;1.30;99.90;;;;;;6245696;22;20020;-82
2023/03/10 12:28:15;;;;;;;24.23;11.48;;;1.30;99.90;;;;;;6245433;22;20020;-82
2023/03/10 12:30:49;;;;;;;22.55;11.57;;;1.60;99.90;;;;;;6245163;23;20028;-82
2023/03/10 12:33:32;;;;;;;23.73;11.45;;;1.30;99.90;;;;;;6244097;23;20031;-83
2023/03/10 12:36:31;;;;;;;22.58;11.30;;;1.30;99.90;;;;;;6243365;23;20101;-82
2023/03/10 12:38:58;;;;;;;18.48;9.52;;;1.20;99.90;;;;;;6244420;22;20051;-82
2023/03/10 12:41:27;;;;;;;21.40;10.23;;;0.80;99.90;;;;;;6218990;23;20146;-83
2023/03/10 12:43:54;;;;;;;21.60;10.63;;;2.00;99.90;;;;;;6245274;23;20024;-82
2023/03/10 12:46:41;;;;;;;22.85;10.30;;;2.10;99.90;;;;;;6245858;23;20023;-84
2023/03/10 12:49:24;;;;;;;19.27;10.18;;;1.20;99.90;;;;;;6245487;23;20020;-82
2023/03/10 12:52:13;;;;;;;22.95;10.63;;;1.20;99.90;;;;;;6245587;22;20090;-82
2023/03/10 12:55:23;;;;;;;25.30;10.85;;;1.20;99.90;;;;;;6122702;23;20491;-84
2023/03/10 12:57:51;;;;;;;22.35;10.80;;;1.10;99.90;;;;;;6118417;23;20025;-83
2023/03/10 13:00:46;;;;;;;20.95;10.27;;;2.30;99.90;;;;;;6124610;23;20040;-83
2023/03/10 13:03:17;;;;;;;22.38;10.15;;;1.20;99.90;;;;;;6122213;23;20026;-82